createdAt,value
2019-05-02T01:07:12.689Z,9.18
2019-05-02T01:08:13.552Z,9.11
2019-05-02T02:10:14.903Z,9.13
2019-05-02T02:11:13.237Z,9.10
2019-05-02T02:12:13.192Z,9.10
2019-05-02T02:13:11.543Z,9.10
2019-05-02T02:14:12.774Z,9.16
2019-05-02T02:15:10.905Z,9.06
2019-05-02T02:16:10.876Z,9.03
2019-05-02T02:17:15.489Z,9.02
2019-05-02T02:18:10.863Z,9.11
2019-05-02T02:19:10.851Z,9.16
2019-05-02T02:20:14.087Z,9.11
2019-05-02T02:21:10.839Z,9.03
2019-05-02T02:22:10.831Z,9.11
2019-05-02T02:23:14.169Z,9.08
2019-05-02T02:24:10.838Z,9.11
2019-05-02T02:25:10.816Z,9.14
2019-05-02T02:26:12.035Z,9.13
2019-05-02T02:27:10.780Z,9.13
2019-05-02T02:28:10.780Z,9.11
2019-05-02T02:29:10.763Z,9.13
2019-05-02T02:30:17.745Z,9.06
2019-05-02T02:31:10.780Z,9.13
2019-05-02T02:32:10.775Z,9.03
2019-05-02T02:33:10.740Z,9.06
2019-05-02T02:34:10.723Z,8.97
2019-05-02T02:35:12.672Z,9.14
2019-05-02T02:36:10.704Z,9.16
2019-05-02T02:37:12.983Z,9.18
2019-05-02T02:38:10.718Z,9.11
2019-05-02T02:39:14.171Z,9.11
2019-05-02T02:40:10.725Z,9.19
2019-05-02T02:41:13.124Z,9.08
2019-05-02T02:42:10.656Z,9.22
2019-05-02T02:43:31.629Z,9.13
2019-05-02T02:44:10.655Z,9.21
2019-05-02T02:45:12.889Z,9.21
2019-05-02T02:46:10.614Z,9.14
2019-05-02T02:47:12.301Z,9.22
2019-05-02T02:48:10.672Z,9.19
2019-05-02T02:49:13.867Z,9.16
2019-05-02T02:50:10.837Z,9.19
2019-05-02T02:51:22.754Z,9.10
2019-05-02T02:52:10.709Z,9.19
2019-05-02T02:53:10.750Z,9.21
2019-05-02T02:54:10.548Z,9.10
2019-05-02T02:55:10.560Z,9.21
2019-05-02T02:56:10.552Z,9.10
2019-05-02T02:57:20.613Z,9.22
2019-05-02T02:58:10.535Z,9.21
2019-05-02T02:59:10.501Z,9.19
2019-05-02T03:00:11.126Z,9.16
2019-05-02T03:01:10.494Z,9.16
2019-05-02T03:02:12.167Z,9.18
2019-05-02T03:03:10.536Z,9.18
2019-05-02T03:04:12.188Z,9.14
2019-05-02T03:05:10.476Z,9.03
2019-05-02T03:06:10.447Z,9.22
2019-05-02T03:07:10.435Z,9.13
2019-05-02T03:08:10.440Z,9.11
2019-05-02T03:09:10.418Z,9.21
2019-05-02T03:10:10.416Z,9.21
2019-05-02T03:11:10.434Z,9.22
2019-05-02T03:12:10.388Z,9.21
2019-05-02T03:13:15.192Z,9.08
2019-05-02T03:14:10.401Z,9.13
2019-05-02T03:15:10.357Z,9.10
2019-05-02T03:16:10.355Z,9.18
2019-05-02T03:17:10.360Z,9.13
2019-05-02T03:18:10.333Z,9.22
2019-05-02T03:19:14.575Z,9.06
2019-05-02T03:20:10.317Z,9.11
2019-05-02T03:21:13.588Z,9.13
2019-05-02T03:22:10.303Z,9.22
2019-05-02T03:23:15.009Z,9.10
2019-05-02T03:24:10.319Z,9.21
2019-05-02T03:25:10.294Z,9.10
2019-05-02T03:26:14.869Z,9.13
2019-05-02T03:27:10.260Z,9.14
2019-05-02T03:28:17.897Z,9.22
2019-05-02T03:29:10.245Z,9.11
2019-05-02T03:30:29.339Z,9.19
2019-05-02T03:31:22.798Z,9.18
2019-05-02T03:32:19.426Z,9.22
2019-05-02T03:33:12.017Z,9.10
2019-05-02T03:34:10.264Z,9.06
2019-05-02T03:35:10.232Z,9.22
2019-05-02T03:36:26.138Z,9.10
2019-05-02T03:37:13.538Z,9.23
2019-05-02T03:38:10.186Z,9.11
2019-05-02T03:39:14.690Z,9.10
2019-05-02T03:40:10.144Z,9.19
2019-05-02T03:41:13.578Z,9.10
2019-05-02T03:42:10.127Z,9.08
2019-05-02T03:43:10.134Z,9.22
2019-05-02T03:44:11.933Z,9.13
2019-05-02T03:45:10.125Z,9.18
2019-05-02T03:46:17.826Z,9.13
2019-05-02T03:47:10.114Z,9.18
2019-05-02T03:48:10.070Z,9.25
2019-05-02T03:49:10.140Z,9.26
2019-05-02T03:50:10.154Z,9.22
2019-05-02T03:51:19.699Z,9.14
2019-05-02T03:52:10.035Z,9.22
2019-05-02T03:53:10.031Z,9.10
2019-05-02T03:54:10.592Z,9.21
2019-05-02T03:55:10.014Z,9.10
2019-05-02T03:56:11.390Z,9.11
2019-05-02T03:57:10.049Z,9.21
2019-05-02T03:58:14.158Z,9.10
2019-05-02T03:59:09.980Z,9.19
2019-05-02T04:00:13.595Z,9.14
2019-05-02T04:01:09.962Z,9.21
2019-05-02T04:02:14.148Z,9.18
2019-05-02T04:03:09.941Z,9.21
2019-05-02T04:04:14.108Z,9.16
2019-05-02T04:05:09.955Z,9.22
2019-05-02T04:06:13.830Z,9.25
2019-05-02T04:07:10.019Z,9.16
2019-05-02T04:08:19.715Z,9.21
2019-05-02T04:09:09.949Z,9.18
2019-05-02T04:10:13.560Z,9.18
2019-05-02T04:11:09.933Z,9.19
2019-05-02T04:12:18.557Z,9.18
2019-05-02T04:13:09.858Z,9.22
2019-05-02T04:14:17.777Z,9.14
2019-05-02T04:15:09.897Z,9.08
2019-05-02T04:16:15.406Z,9.19
2019-05-02T04:17:09.873Z,9.13
2019-05-02T04:18:15.544Z,9.22
2019-05-02T04:19:09.862Z,9.14
2019-05-02T04:20:12.463Z,9.22
2019-05-02T04:21:09.786Z,9.23
2019-05-02T04:22:12.002Z,9.19
2019-05-02T04:23:09.797Z,9.19
2019-05-02T04:24:15.203Z,9.18
2019-05-02T04:25:09.756Z,9.28
2019-05-02T04:26:12.847Z,9.19
2019-05-02T04:27:09.740Z,9.22
2019-05-02T04:28:12.092Z,9.22
2019-05-02T04:29:09.721Z,9.25
2019-05-02T04:30:13.847Z,9.19
2019-05-02T04:31:09.704Z,9.14
2019-05-02T04:32:11.918Z,9.18
2019-05-02T04:33:09.679Z,9.18
2019-05-02T04:34:15.353Z,9.29
2019-05-02T04:35:09.669Z,9.29
2019-05-02T04:36:15.523Z,9.29
2019-05-02T04:37:09.646Z,9.29
2019-05-02T04:38:19.734Z,9.29
2019-05-02T04:39:12.713Z,9.28
2019-05-02T04:40:12.279Z,9.28
2019-05-02T04:41:09.612Z,9.40
2019-05-02T04:42:15.981Z,9.31
2019-05-02T04:43:11.447Z,9.31
2019-05-02T04:44:09.601Z,9.26
2019-05-02T04:45:24.229Z,9.28
2019-05-02T04:46:17.947Z,9.26
2019-05-02T04:47:16.579Z,9.26
2019-05-02T04:48:09.558Z,9.26
2019-05-02T04:49:09.554Z,9.29
2019-05-02T04:50:18.223Z,9.36
2019-05-02T04:51:16.454Z,9.36
2019-05-02T04:52:12.272Z,9.29
2019-05-02T04:53:09.524Z,9.29
2019-05-02T04:54:09.515Z,9.32
2019-05-02T04:55:19.722Z,9.34
2019-05-02T04:56:10.695Z,9.40
2019-05-02T04:57:09.477Z,9.36
2019-05-02T04:58:09.469Z,9.39
2019-05-02T04:59:17.867Z,9.37
2019-05-02T05:00:11.868Z,9.43
2019-05-02T05:01:10.155Z,9.39
2019-05-02T05:02:09.534Z,9.37
2019-05-02T05:03:15.621Z,9.32
2019-05-02T05:04:09.414Z,9.34
2019-05-02T05:05:09.402Z,9.41
2019-05-02T05:06:12.284Z,9.40
2019-05-02T05:07:09.630Z,9.37
2019-05-02T05:08:09.389Z,9.34
2019-05-02T05:09:13.498Z,9.34
2019-05-02T05:10:09.399Z,9.40
2019-05-02T05:11:09.364Z,9.40
2019-05-02T05:12:09.356Z,9.37
2019-05-02T05:13:12.047Z,9.41
2019-05-02T05:14:09.997Z,9.36
2019-05-02T05:15:13.371Z,9.36
2019-05-02T05:16:15.299Z,9.37
2019-05-02T05:17:09.341Z,9.34
2019-05-02T05:18:12.638Z,9.37
2019-05-02T05:19:09.284Z,9.41
2019-05-02T05:20:13.747Z,9.39
2019-05-02T05:21:10.692Z,9.44
2019-05-02T05:22:11.982Z,9.51
2019-05-02T05:23:09.255Z,9.47
2019-05-02T05:24:09.244Z,9.50
2019-05-02T05:25:12.378Z,9.50
2019-05-02T05:26:09.221Z,9.51
2019-05-02T05:27:13.302Z,9.50
2019-05-02T05:28:09.297Z,9.51
2019-05-02T05:29:09.231Z,9.50
2019-05-02T05:30:15.162Z,9.48
2019-05-02T05:31:09.181Z,9.47
2019-05-02T05:32:10.212Z,9.46
2019-05-02T05:33:10.229Z,9.51
2019-05-02T05:34:09.848Z,9.47
2019-05-02T05:35:12.930Z,9.48
2019-05-02T05:36:09.163Z,9.48
2019-05-02T05:37:13.259Z,9.56
2019-05-02T05:38:09.123Z,9.56
2019-05-02T05:39:11.644Z,9.58
2019-05-02T05:40:09.105Z,9.55
2019-05-02T05:41:13.160Z,9.56
2019-05-02T05:42:10.723Z,9.56
2019-05-02T05:43:14.567Z,9.56
2019-05-02T05:44:09.068Z,9.56
2019-05-02T05:45:13.621Z,9.55
2019-05-02T05:46:12.807Z,9.54
2019-05-02T05:47:12.089Z,9.56
2019-05-02T05:48:09.063Z,9.59
2019-05-02T05:49:10.474Z,9.56
2019-05-02T05:50:09.023Z,9.54
2019-05-02T05:51:11.835Z,9.56
2019-05-02T05:52:09.004Z,9.58
2019-05-02T05:53:12.271Z,9.55
2019-05-02T05:54:08.987Z,9.58
2019-05-02T05:55:12.711Z,9.56
2019-05-02T05:56:08.998Z,9.56
2019-05-02T05:57:12.257Z,9.58
2019-05-02T05:58:15.308Z,9.59
2019-05-02T05:59:08.959Z,9.64
2019-05-02T06:00:15.999Z,9.62
2019-05-02T06:01:10.291Z,9.59
2019-05-02T06:02:12.679Z,9.66
2019-05-02T06:03:13.753Z,9.68
2019-05-02T06:04:08.917Z,9.66
2019-05-02T06:05:08.893Z,9.66
2019-05-02T06:06:10.254Z,9.76
2019-05-02T06:07:08.881Z,9.69
2019-05-02T06:08:08.893Z,9.72
2019-05-02T06:09:08.879Z,9.73
2019-05-02T06:10:09.929Z,9.76
2019-05-02T06:11:08.841Z,9.79
2019-05-02T06:12:08.833Z,9.72
2019-05-02T06:13:11.030Z,9.68
2019-05-02T06:14:08.816Z,9.72
2019-05-02T06:15:08.804Z,9.74
2019-05-02T06:16:10.408Z,9.73
2019-05-02T06:17:08.791Z,9.73
2019-05-02T06:18:08.783Z,9.66
2019-05-02T06:19:12.924Z,9.68
2019-05-02T06:20:08.763Z,9.74
2019-05-02T06:21:10.677Z,9.68
2019-05-02T06:22:08.754Z,9.72
2019-05-02T06:23:08.751Z,9.82
2019-05-02T06:24:10.901Z,9.77
2019-05-02T06:25:10.099Z,9.76
2019-05-02T06:26:13.550Z,9.82
2019-05-02T06:27:08.707Z,9.76
2019-05-02T06:28:08.698Z,9.87
2019-05-02T06:29:13.042Z,9.82
2019-05-02T06:30:08.681Z,9.82
2019-05-02T06:31:08.777Z,9.83
2019-05-02T06:32:08.678Z,9.87
2019-05-02T06:33:08.682Z,9.89
2019-05-02T06:34:08.667Z,9.92
2019-05-02T06:35:08.639Z,9.94
2019-05-02T06:36:08.641Z,9.94
2019-05-02T06:40:24.598Z,9.98
2019-05-02T06:41:26.507Z,9.97
2019-05-02T06:50:25.871Z,10.15
2019-05-02T06:50:53.850Z,10.10
2019-05-02T06:55:52.219Z,10.12
2019-05-02T06:56:52.222Z,10.09
2019-05-02T06:57:57.104Z,10.09
2019-05-02T06:58:52.342Z,10.12
2019-05-02T06:59:54.682Z,10.12
2019-05-02T07:00:58.430Z,10.17
2019-05-02T07:01:56.854Z,10.15
2019-05-02T07:02:52.141Z,10.13
2019-05-02T07:03:52.144Z,10.15
2019-05-02T07:04:54.739Z,10.17
2019-05-02T07:05:52.119Z,10.17
2019-05-02T07:06:58.827Z,10.19
2019-05-02T07:07:52.325Z,10.31
2019-05-02T07:08:52.093Z,10.37
2019-05-02T07:09:52.064Z,10.41
2019-05-02T07:10:56.068Z,10.30
2019-05-02T07:11:57.824Z,10.38
2019-05-02T07:13:02.234Z,10.37
2019-05-02T07:13:52.039Z,10.37
2019-05-02T07:14:56.114Z,10.37
2019-05-02T07:15:52.035Z,10.28
2019-05-02T07:16:54.445Z,10.48
2019-05-02T07:17:52.047Z,10.53
2019-05-02T07:18:52.004Z,10.44
2019-05-02T07:19:52.018Z,10.56
2019-05-02T07:20:51.984Z,10.54
2019-05-02T07:21:53.193Z,10.64
2019-05-02T07:22:51.996Z,10.61
2019-05-02T07:23:53.462Z,10.63
2019-05-02T07:24:51.970Z,10.74
2019-05-02T07:25:51.940Z,10.81
2019-05-02T07:26:52.105Z,10.93
2019-05-02T07:27:51.928Z,11.17
2019-05-02T07:28:51.932Z,11.26
2019-05-02T07:29:57.140Z,11.30
2019-05-02T07:30:54.518Z,11.40
2019-05-02T07:31:53.547Z,11.63
2019-05-02T07:32:51.897Z,11.70
2019-05-02T07:33:51.880Z,11.90
2019-05-02T07:34:51.884Z,12.03
2019-05-02T07:35:55.265Z,12.17
2019-05-02T07:36:51.863Z,12.39
2019-05-02T07:37:51.861Z,12.25
2019-05-02T07:38:51.882Z,12.22
2019-05-02T07:39:51.881Z,12.36
2019-05-02T07:40:53.116Z,12.40
2019-05-02T07:41:51.838Z,12.36
2019-05-02T07:42:51.830Z,12.40
2019-05-02T07:43:52.129Z,12.31
2019-05-02T07:44:51.870Z,12.43
2019-05-02T07:45:51.836Z,12.35
2019-05-02T07:46:52.373Z,12.36
2019-05-02T07:47:51.851Z,12.36
2019-05-02T07:48:54.549Z,12.32
2019-05-02T07:49:51.789Z,12.37
2019-05-02T07:50:52.192Z,12.27
2019-05-02T07:51:52.312Z,12.40
2019-05-02T07:52:51.775Z,12.29
2019-05-02T07:53:51.770Z,12.35
2019-05-02T07:54:56.032Z,12.40
2019-05-02T07:55:51.764Z,12.35
2019-05-02T07:56:53.312Z,12.45
2019-05-02T07:57:51.741Z,12.46
2019-05-02T07:58:51.759Z,12.49
2019-05-02T07:59:54.979Z,12.58
2019-05-02T08:00:51.730Z,12.55
2019-05-02T08:01:51.727Z,12.55
2019-05-02T08:02:51.756Z,12.67
2019-05-02T08:03:51.739Z,12.68
2019-05-02T08:04:51.752Z,12.82
2019-05-02T08:05:54.475Z,12.76
2019-05-02T08:06:51.711Z,12.80
2019-05-02T08:07:53.388Z,12.93
2019-05-02T08:08:51.708Z,12.95
2019-05-02T08:09:51.693Z,12.87
2019-05-02T08:10:53.834Z,12.94
2019-05-02T08:11:51.695Z,13.01
2019-05-02T08:12:51.695Z,13.00
2019-05-02T08:13:55.824Z,13.05
2019-05-02T08:14:51.658Z,13.01
2019-05-02T08:15:52.425Z,13.09
2019-05-02T08:17:04.718Z,13.20
2019-05-02T08:17:53.702Z,13.30
2019-05-02T08:18:51.650Z,13.28
2019-05-02T08:19:51.644Z,13.52
2019-05-02T08:20:55.978Z,13.65
2019-05-02T08:21:51.614Z,13.77
2019-05-02T08:22:51.615Z,13.97
2019-05-02T08:23:51.611Z,14.12
2019-05-02T08:24:51.613Z,14.22
2019-05-02T08:25:51.604Z,14.26
2019-05-02T08:26:53.450Z,14.45
2019-05-02T08:27:51.594Z,14.55
2019-05-02T08:28:53.148Z,14.54
2019-05-02T08:29:51.608Z,14.59
2019-05-02T08:30:51.615Z,14.69
2019-05-02T08:31:51.606Z,14.81
2019-05-02T08:32:51.593Z,14.94
2019-05-02T08:33:51.571Z,15.00
2019-05-02T08:34:53.489Z,15.07
2019-05-02T08:35:51.573Z,14.94
2019-05-02T08:36:51.571Z,14.89
2019-05-02T08:37:51.574Z,14.78
2019-05-02T08:38:53.656Z,14.81
2019-05-02T08:39:51.620Z,14.72
2019-05-02T08:40:51.561Z,14.60
2019-05-02T08:41:56.507Z,14.66
2019-05-02T08:42:51.549Z,14.85
2019-05-02T08:43:59.619Z,14.85
2019-05-02T09:07:53.400Z,16.87
2019-05-02T09:09:55.566Z,16.89
2019-05-02T09:10:43.463Z,16.96
2019-05-02T09:15:53.594Z,17.48
2019-05-02T09:16:42.758Z,17.54
2019-05-02T09:23:13.086Z,18.35
2019-05-02T09:24:15.813Z,18.55
2019-05-02T09:26:36.162Z,18.63
2019-05-02T09:27:05.349Z,18.77
2019-05-02T09:31:06.858Z,18.84
2019-05-02T09:31:31.950Z,18.89
2019-05-02T09:40:12.544Z,19.48
2019-05-02T09:40:34.247Z,19.64
2019-05-02T09:45:55.596Z,20.09
2019-05-02T09:46:32.626Z,20.03
2019-05-02T09:47:46.846Z,19.99
2019-05-02T09:48:32.584Z,20.14
2019-05-02T09:49:32.557Z,20.24
2019-05-02T09:50:34.772Z,20.13
2019-05-02T09:55:07.466Z,20.29
2019-05-02T09:55:42.027Z,20.14
2019-05-02T09:57:47.651Z,20.09
2019-05-02T09:58:32.050Z,20.04
2019-05-02T10:02:19.411Z,20.31
2019-05-02T10:02:57.466Z,20.25
2019-05-02T10:03:57.457Z,20.32
2019-05-02T10:04:57.449Z,20.51
2019-05-02T10:05:57.454Z,20.62
2019-05-02T10:06:57.447Z,20.75
2019-05-02T10:08:02.096Z,20.92
2019-05-02T10:08:57.446Z,21.00
2019-05-02T10:09:57.624Z,21.14
2019-05-02T10:10:57.478Z,21.25
2019-05-02T10:11:57.461Z,21.32
2019-05-02T10:12:57.470Z,21.45
2019-05-02T10:13:57.475Z,21.50
2019-05-02T10:14:57.473Z,21.54
2019-05-02T10:15:57.493Z,21.54
2019-05-02T10:17:01.705Z,21.61
2019-05-02T10:18:08.786Z,21.80
2019-05-02T10:19:00.292Z,21.67
2019-05-02T10:19:57.497Z,21.60
2019-05-02T10:20:57.486Z,21.69
2019-05-02T10:21:57.495Z,21.48
2019-05-02T10:22:57.489Z,21.22
2019-05-02T10:23:59.445Z,21.36
2019-05-02T10:24:57.501Z,21.39
2019-05-02T10:25:57.506Z,21.55
2019-05-02T10:27:04.131Z,21.67
2019-05-02T10:27:57.517Z,21.72
2019-05-02T10:28:57.518Z,21.66
2019-05-02T10:30:08.124Z,21.62
2019-05-02T10:30:57.560Z,21.39
2019-05-02T10:31:57.523Z,21.39
2019-05-02T10:32:57.549Z,21.50
2019-05-02T10:33:57.526Z,21.50
2019-05-02T10:34:57.539Z,21.37
2019-05-02T10:35:57.542Z,21.35
2019-05-02T10:36:59.025Z,21.32
2019-05-02T10:37:57.548Z,21.15
2019-05-02T10:38:59.314Z,21.15
2019-05-02T10:39:57.554Z,21.32
2019-05-02T10:41:01.814Z,21.29
2019-05-02T10:41:57.721Z,21.32
2019-05-02T10:42:57.562Z,21.35
2019-05-02T10:43:59.543Z,21.54
2019-05-02T10:44:57.569Z,21.69
2019-05-02T10:45:57.576Z,21.82
2019-05-02T10:46:57.573Z,21.91
2019-05-02T10:47:57.572Z,21.80
2019-05-02T10:48:57.581Z,21.76
2019-05-02T10:49:57.583Z,21.79
2019-05-02T10:50:57.588Z,21.82
2019-05-02T10:51:57.592Z,21.80
2019-05-02T10:52:57.598Z,21.72
2019-05-02T10:53:57.597Z,21.70
2019-05-02T10:54:57.602Z,21.69
2019-05-02T10:55:57.601Z,21.52
2019-05-02T10:56:57.614Z,21.61
2019-05-02T10:57:57.602Z,21.77
2019-05-02T10:58:57.631Z,21.92
2019-05-02T10:59:57.621Z,21.89
2019-05-02T11:00:57.620Z,21.77
2019-05-02T11:01:57.622Z,21.80
2019-05-02T11:02:57.623Z,21.67
2019-05-02T11:03:57.620Z,21.58
2019-05-02T11:04:57.636Z,21.61
2019-05-02T11:05:57.942Z,21.75
2019-05-02T11:06:57.642Z,21.83
2019-05-02T11:08:04.730Z,21.85
2019-05-02T11:08:57.655Z,22.00
2019-05-02T11:10:03.100Z,22.13
2019-05-02T11:10:57.648Z,21.93
2019-05-02T11:11:57.654Z,22.02
2019-05-02T11:12:57.649Z,22.00
2019-05-02T11:14:01.139Z,21.83
2019-05-02T11:14:57.662Z,21.98
2019-05-02T11:15:57.658Z,21.77
2019-05-02T11:16:57.671Z,21.73
2019-05-02T11:17:57.670Z,21.79
2019-05-02T11:18:57.675Z,21.85
2019-05-02T11:19:57.678Z,21.91
2019-05-02T11:20:59.043Z,22.04
2019-05-02T11:21:59.156Z,22.22
2019-05-02T11:22:57.684Z,22.43
2019-05-02T11:23:57.814Z,22.54
2019-05-02T11:24:57.693Z,22.57
2019-05-02T11:25:57.701Z,22.45
2019-05-02T11:26:57.706Z,22.51
2019-05-02T11:28:02.945Z,22.33
2019-05-02T11:28:57.722Z,22.18
2019-05-02T11:29:57.718Z,22.14
2019-05-02T11:31:02.596Z,22.33
2019-05-02T11:31:57.722Z,22.29
2019-05-02T11:32:57.727Z,22.44
2019-05-02T11:33:57.728Z,22.50
2019-05-02T11:34:57.733Z,22.59
2019-05-02T11:35:57.736Z,22.66
2019-05-02T11:36:58.443Z,22.50
2019-05-02T11:37:57.743Z,22.53
2019-05-02T11:39:08.269Z,22.59
2019-05-02T11:40:01.130Z,22.76
2019-05-02T11:40:57.758Z,22.59
2019-05-02T11:41:57.830Z,22.60
2019-05-02T11:43:02.779Z,22.45
2019-05-02T11:43:57.767Z,22.28
2019-05-02T11:44:57.768Z,22.30
2019-05-02T11:46:02.406Z,22.30
2019-05-02T11:46:57.776Z,22.23
2019-05-02T11:48:02.037Z,22.20
2019-05-02T11:48:58.648Z,22.22
2019-05-02T11:49:57.788Z,22.25
2019-05-02T11:50:58.136Z,22.20
2019-05-02T11:51:57.792Z,22.22
2019-05-02T11:52:57.798Z,22.10
2019-05-02T11:53:59.214Z,22.17
2019-05-02T11:54:57.807Z,22.25
2019-05-02T11:55:58.392Z,22.25
2019-05-02T11:56:57.814Z,22.30
2019-05-02T11:58:02.409Z,22.44
2019-05-02T11:58:57.812Z,22.47
2019-05-02T11:59:59.364Z,22.53
2019-05-02T12:00:57.822Z,22.44
2019-05-02T12:02:00.119Z,22.41
2019-05-02T12:02:58.374Z,22.41
2019-05-02T12:03:57.830Z,22.38
2019-05-02T12:04:57.837Z,22.23
2019-05-02T12:05:57.834Z,22.18
2019-05-02T12:07:01.470Z,22.28
2019-05-02T12:08:00.773Z,22.45
2019-05-02T12:08:57.859Z,22.60
2019-05-02T12:09:57.872Z,22.73
2019-05-02T12:10:57.848Z,22.81
2019-05-02T12:11:57.846Z,22.80
2019-05-02T12:12:57.852Z,22.62
2019-05-02T12:13:57.855Z,22.57
2019-05-02T12:14:57.861Z,22.43
2019-05-02T12:15:57.862Z,22.43
2019-05-02T12:16:57.869Z,22.48
2019-05-02T12:17:57.869Z,22.50
2019-05-02T12:19:08.569Z,22.50
2019-05-02T12:19:57.875Z,22.48
2019-05-02T12:20:57.873Z,22.48
2019-05-02T12:21:57.879Z,22.48
2019-05-02T12:22:57.897Z,22.51
2019-05-02T12:23:57.897Z,22.48
2019-05-02T12:24:57.884Z,22.44
2019-05-02T12:25:57.894Z,22.45
2019-05-02T12:26:57.893Z,22.53
2019-05-02T12:27:57.890Z,22.39
2019-05-02T12:28:57.891Z,22.18
2019-05-02T12:29:59.316Z,22.14
2019-05-02T12:30:57.897Z,22.17
2019-05-02T12:31:57.903Z,21.98
2019-05-02T12:32:57.907Z,21.85
2019-05-02T12:33:57.902Z,21.79
2019-05-02T12:34:58.498Z,21.77
2019-05-02T12:35:57.997Z,21.80
2019-05-02T12:36:58.032Z,21.96
2019-05-02T12:37:57.969Z,22.11
2019-05-02T12:38:57.979Z,22.14
2019-05-02T12:39:57.933Z,22.11
2019-05-02T12:40:58.063Z,22.11
2019-05-02T12:41:58.323Z,22.00
2019-05-02T12:42:57.910Z,21.99
2019-05-02T12:43:57.908Z,22.06
2019-05-02T12:44:57.915Z,21.92
2019-05-02T12:45:57.926Z,21.96
2019-05-02T12:46:58.552Z,21.98
2019-05-02T12:47:57.918Z,22.11
2019-05-02T12:48:57.923Z,22.11
2019-05-02T12:49:57.923Z,22.23
2019-05-02T12:50:57.928Z,22.32
2019-05-02T12:51:57.924Z,22.44
2019-05-02T12:52:57.937Z,22.43
2019-05-02T12:53:57.926Z,22.29
2019-05-02T12:54:57.938Z,22.32
2019-05-02T12:55:57.932Z,22.35
2019-05-02T12:56:57.951Z,22.23
2019-05-02T12:57:57.943Z,22.22
2019-05-02T12:58:57.966Z,22.20
2019-05-02T12:59:57.937Z,22.17
2019-05-02T13:00:57.948Z,22.17
2019-05-02T13:01:57.967Z,22.00
2019-05-02T13:02:57.947Z,21.92
2019-05-02T13:03:57.947Z,21.79
2019-05-02T13:04:57.947Z,21.77
2019-05-02T13:05:57.949Z,21.67
2019-05-02T13:06:57.954Z,21.58
2019-05-02T13:07:57.952Z,21.58
2019-05-02T13:08:57.955Z,21.46
2019-05-02T13:09:57.958Z,21.33
2019-05-02T13:11:02.085Z,21.29
2019-05-02T13:11:57.950Z,21.21
2019-05-02T13:12:57.955Z,21.20
2019-05-02T13:13:57.951Z,21.24
2019-05-02T13:14:57.958Z,21.32
2019-05-02T13:16:00.853Z,21.27
2019-05-02T13:17:01.420Z,21.30
2019-05-02T13:17:57.969Z,21.39
2019-05-02T13:19:04.490Z,21.30
2019-05-02T13:20:03.133Z,21.24
2019-05-02T13:20:57.958Z,21.18
2019-05-02T13:21:59.704Z,21.32
2019-05-02T13:23:00.887Z,21.24
2019-05-02T13:23:57.955Z,21.24
2019-05-02T13:24:57.954Z,21.17
2019-05-02T13:25:57.954Z,21.17
2019-05-02T13:26:59.315Z,20.81
2019-05-02T13:27:57.950Z,20.66
2019-05-02T13:28:57.952Z,20.55
2019-05-02T13:29:57.954Z,20.63
2019-05-02T13:30:57.949Z,20.62
2019-05-02T13:31:57.948Z,20.32
2019-05-02T13:32:58.098Z,20.26
2019-05-02T13:33:57.948Z,20.25
2019-05-02T13:34:57.945Z,20.19
2019-05-02T13:35:57.943Z,20.22
2019-05-02T13:36:58.099Z,20.19
2019-05-02T13:37:57.957Z,20.06
2019-05-02T13:38:57.949Z,20.18
2019-05-02T13:39:57.938Z,20.14
2019-05-02T13:40:57.937Z,20.13
2019-05-02T13:41:57.928Z,19.96
2019-05-02T13:42:57.931Z,19.79
2019-05-02T13:43:57.928Z,19.77
2019-05-02T13:44:57.925Z,19.70
2019-05-02T13:45:57.925Z,19.73
2019-05-02T13:46:57.922Z,19.56
2019-05-02T13:47:57.915Z,19.54
2019-05-02T13:48:57.915Z,19.40
2019-05-02T13:50:00.855Z,19.47
2019-05-02T13:50:57.907Z,19.31
2019-05-02T13:51:57.907Z,19.21
2019-05-02T13:52:58.158Z,18.73
2019-05-02T13:53:57.904Z,18.53
2019-05-02T13:54:57.900Z,18.22
2019-05-02T13:55:57.959Z,17.87
2019-05-02T13:56:57.894Z,17.74
2019-05-02T13:57:57.888Z,17.60
2019-05-02T13:58:57.883Z,17.36
2019-05-02T13:59:57.879Z,17.48
2019-05-02T14:00:57.882Z,17.34
2019-05-02T14:01:57.873Z,17.31
2019-05-02T14:02:57.877Z,17.31
2019-05-02T14:03:57.878Z,17.24
2019-05-02T14:04:57.863Z,17.16
2019-05-02T14:05:57.858Z,17.09
2019-05-02T14:06:57.862Z,17.01
2019-05-02T14:07:57.854Z,16.83
2019-05-02T14:08:57.854Z,16.75
2019-05-02T14:09:58.723Z,16.64
2019-05-02T14:10:57.841Z,16.42
2019-05-02T14:11:57.863Z,16.36
2019-05-02T14:12:57.828Z,16.09
2019-05-02T14:13:57.834Z,16.08
2019-05-02T14:14:57.825Z,16.01
2019-05-02T14:15:57.814Z,16.02
2019-05-02T14:16:57.814Z,15.98
2019-05-02T14:17:57.807Z,15.91
2019-05-02T14:18:57.807Z,15.79
2019-05-02T14:20:10.065Z,15.86
2019-05-02T14:20:57.797Z,15.80
2019-05-02T14:21:57.790Z,15.83
2019-05-02T14:22:57.779Z,15.73
2019-05-02T14:23:57.781Z,15.73
2019-05-02T14:24:57.776Z,15.62
2019-05-02T14:25:57.832Z,15.62
2019-05-02T14:26:57.760Z,15.73
2019-05-02T14:27:57.757Z,15.68
2019-05-02T14:28:57.747Z,15.70
2019-05-02T14:29:57.750Z,15.59
2019-05-02T14:30:57.744Z,15.64
2019-05-02T14:31:57.743Z,15.67
2019-05-02T14:32:57.732Z,15.59
2019-05-02T14:33:57.728Z,15.54
2019-05-02T14:34:57.726Z,15.54
2019-05-02T14:35:57.714Z,15.54
2019-05-02T14:36:59.464Z,15.54
2019-05-02T14:37:57.714Z,15.52
2019-05-02T14:38:57.699Z,15.47
2019-05-02T14:39:57.693Z,15.43
2019-05-02T14:40:57.713Z,15.43
2019-05-02T14:41:57.693Z,15.52
2019-05-02T14:43:02.345Z,15.58
2019-05-02T14:43:57.679Z,15.67
2019-05-02T14:45:09.051Z,15.58
2019-05-02T14:45:58.581Z,15.75
2019-05-02T14:46:57.650Z,15.70
2019-05-02T14:48:04.051Z,15.72
2019-05-02T14:48:57.645Z,15.67
2019-05-02T14:50:02.084Z,15.61
2019-05-02T14:50:57.633Z,15.59
2019-05-02T14:52:02.868Z,15.55
2019-05-02T14:52:57.631Z,15.36
2019-05-02T14:54:03.552Z,15.29
2019-05-02T14:54:57.636Z,15.33
2019-05-02T14:56:01.842Z,15.25
2019-05-02T14:56:57.593Z,15.21
2019-05-02T14:58:02.233Z,15.19
2019-05-02T14:58:57.586Z,15.24
2019-05-02T14:59:59.465Z,15.21
2019-05-02T15:00:57.572Z,15.22
2019-05-02T15:02:02.641Z,15.19
2019-05-02T15:02:57.564Z,15.25
2019-05-02T15:03:58.313Z,15.06
2019-05-02T15:04:57.547Z,15.09
2019-05-02T15:05:59.098Z,15.14
2019-05-02T15:06:57.550Z,15.19
2019-05-02T15:08:02.542Z,15.22
2019-05-02T15:08:57.525Z,15.21
2019-05-02T15:10:02.617Z,15.11
2019-05-02T15:10:57.514Z,15.11
2019-05-02T15:11:57.509Z,15.07
2019-05-02T15:12:59.530Z,15.07
2019-05-02T15:13:57.504Z,15.02
2019-05-02T15:14:58.819Z,14.97
2019-05-02T15:15:57.483Z,15.10
2019-05-02T15:16:58.452Z,15.06
2019-05-02T15:17:57.476Z,15.03
2019-05-02T15:18:57.467Z,15.06
2019-05-02T15:20:05.262Z,15.10
2019-05-02T15:21:56.010Z,15.07
2019-05-02T15:22:52.333Z,15.09
2019-05-02T15:30:00.894Z,14.92
2019-05-02T15:30:23.989Z,14.86
2019-05-02T15:32:37.209Z,14.92
2019-05-02T15:33:17.043Z,14.81
2019-05-02T15:35:08.580Z,14.88
2019-05-02T15:36:08.542Z,14.88
2019-05-02T15:37:08.532Z,14.82
2019-05-02T15:38:08.526Z,14.86
2019-05-02T15:41:12.622Z,14.73
2019-05-02T15:42:08.499Z,14.66
2019-05-02T15:43:09.620Z,14.77
2019-05-02T15:44:08.494Z,14.66
2019-05-02T15:45:08.487Z,14.69
2019-05-02T15:46:08.922Z,14.77
2019-05-02T15:47:08.682Z,14.79
2019-05-02T15:48:08.913Z,14.78
2019-05-02T15:49:09.331Z,14.68
2019-05-02T15:50:14.791Z,14.78
2019-05-02T15:51:09.120Z,14.79
2019-05-02T15:52:10.305Z,14.73
2019-05-02T15:53:13.276Z,14.66
2019-05-02T15:54:09.330Z,14.72
2019-05-02T15:55:11.483Z,14.65
2019-05-02T15:56:18.744Z,14.60
2019-05-02T15:57:08.605Z,14.68
2019-05-02T15:58:08.467Z,14.59
2019-05-02T15:59:09.340Z,14.55
2019-05-02T16:00:08.421Z,14.50
2019-05-02T16:01:08.389Z,14.41
2019-05-02T16:04:08.009Z,14.36
2019-05-02T16:05:05.299Z,14.48
2019-05-02T16:12:36.342Z,14.53
2019-05-02T16:13:29.403Z,14.58
2019-05-02T16:15:33.019Z,14.53
2019-05-02T16:16:21.901Z,14.54
2019-05-02T16:17:22.189Z,14.55
2019-05-02T16:18:21.579Z,14.47
2019-05-02T16:19:24.855Z,14.58
2019-05-02T16:20:20.328Z,14.48
2019-05-02T16:21:28.428Z,14.51
2019-05-02T16:22:20.311Z,14.47
2019-05-02T16:23:29.453Z,14.48
2019-05-02T16:24:22.532Z,14.37
2019-05-02T16:25:24.534Z,14.41
2019-05-02T16:26:20.288Z,14.35
2019-05-02T16:27:21.944Z,14.44
2019-05-02T16:28:26.904Z,14.36
2019-05-02T16:29:26.877Z,14.32
2019-05-02T16:30:22.162Z,14.28
2019-05-02T16:31:22.129Z,14.15
2019-05-02T16:32:21.922Z,14.26
2019-05-02T16:33:20.845Z,14.18
2019-05-02T16:34:20.244Z,14.08
2019-05-02T16:35:22.066Z,14.14
2019-05-02T16:36:26.058Z,14.12
2019-05-02T16:37:22.398Z,14.14